sensor_id;sensor_type;location;lat;lon;timestamp;pressure;altitude;pressure_sealevel;temperature;humidity
41467;BME280;27205;53.690;19.948;2022-08-23T00:04:43;99903.00;;;17.82;94.56
41467;BME280;27205;53.690;19.948;2022-08-23T00:10:08;99907.07;;;17.87;94.22
41467;BME280;27205;53.690;19.948;2022-08-23T00:15:14;99907.01;;;17.88;94.86
41467;BME280;27205;53.690;19.948;2022-08-23T00:20:18;99907.17;;;17.87;94.84
41467;BME280;27205;53.690;19.948;2022-08-23T00:25:22;99911.29;;;17.84;95.33
41467;BME280;27205;53.690;19.948;2022-08-23T00:30:25;99903.60;;;17.84;95.45
41467;BME280;27205;53.690;19.948;2022-08-23T00:35:28;99898.92;;;17.81;95.58
41467;BME280;27205;53.690;19.948;2022-08-23T00:40:32;99900.96;;;17.79;96.30
41467;BME280;27205;53.690;19.948;2022-08-23T00:45:43;99900.83;;;17.77;96.25
41467;BME280;27205;53.690;19.948;2022-08-23T00:51:21;99896.48;;;17.75;96.28
41467;BME280;27205;53.690;19.948;2022-08-23T00:56:29;99897.17;;;17.78;96.38
41467;BME280;27205;53.690;19.948;2022-08-23T01:01:34;99892.67;;;17.76;97.19
41467;BME280;27205;53.690;19.948;2022-08-23T01:06:54;99891.09;;;17.72;97.00
41467;BME280;27205;53.690;19.948;2022-08-23T01:12:23;99890.50;;;17.70;97.48
41467;BME280;27205;53.690;19.948;2022-08-23T01:17:37;99893.35;;;17.69;97.83
41467;BME280;27205;53.690;19.948;2022-08-23T01:22:55;99890.79;;;17.68;97.63
41467;BME280;27205;53.690;19.948;2022-08-23T01:28:00;99893.89;;;17.70;97.73
41467;BME280;27205;53.690;19.948;2022-08-23T01:33:04;99901.11;;;17.68;97.72
41467;BME280;27205;53.690;19.948;2022-08-23T01:38:10;99893.64;;;17.65;98.07
41467;BME280;27205;53.690;19.948;2022-08-23T01:43:14;99900.08;;;17.58;97.97
41467;BME280;27205;53.690;19.948;2022-08-23T01:48:19;99902.98;;;17.54;98.21
41467;BME280;27205;53.690;19.948;2022-08-23T01:53:22;99906.50;;;17.52;98.33
41467;BME280;27205;53.690;19.948;2022-08-23T01:58:27;99906.78;;;17.48;98.88
41467;BME280;27205;53.690;19.948;2022-08-23T02:03:33;99911.06;;;17.45;99.31
41467;BME280;27205;53.690;19.948;2022-08-23T02:08:37;99917.02;;;17.42;99.66
41467;BME280;27205;53.690;19.948;2022-08-23T02:14:03;99917.54;;;17.46;99.47
41467;BME280;27205;53.690;19.948;2022-08-23T02:19:11;99922.61;;;17.51;99.71
41467;BME280;27205;53.690;19.948;2022-08-23T02:24:20;99918.15;;;17.58;99.81
41467;BME280;27205;53.690;19.948;2022-08-23T02:29:26;99921.79;;;17.66;99.83
41467;BME280;27205;53.690;19.948;2022-08-23T02:34:32;99922.27;;;17.76;99.91
41467;BME280;27205;53.690;19.948;2022-08-23T02:39:35;99920.79;;;17.83;99.97
41467;BME280;27205;53.690;19.948;2022-08-23T02:44:40;99924.67;;;17.96;100.00
41467;BME280;27205;53.690;19.948;2022-08-23T02:49:44;99923.79;;;18.04;100.00
41467;BME280;27205;53.690;19.948;2022-08-23T02:54:48;99930.02;;;18.04;100.00
41467;BME280;27205;53.690;19.948;2022-08-23T02:59:54;99933.42;;;18.08;100.00
41467;BME280;27205;53.690;19.948;2022-08-23T03:05:00;99935.51;;;18.13;100.00
41467;BME280;27205;53.690;19.948;2022-08-23T03:10:05;99941.71;;;18.10;100.00
41467;BME280;27205;53.690;19.948;2022-08-23T03:15:09;99945.86;;;18.06;100.00
41467;BME280;27205;53.690;19.948;2022-08-23T03:20:14;99953.66;;;18.06;100.00
41467;BME280;27205;53.690;19.948;2022-08-23T03:25:17;99952.90;;;18.17;100.00
41467;BME280;27205;53.690;19.948;2022-08-23T03:30:21;99948.39;;;18.22;100.00
41467;BME280;27205;53.690;19.948;2022-08-23T03:35:25;99940.74;;;18.24;100.00
41467;BME280;27205;53.690;19.948;2022-08-23T03:40:28;99940.82;;;18.20;100.00
41467;BME280;27205;53.690;19.948;2022-08-23T03:45:31;99945.62;;;18.15;100.00
41467;BME280;27205;53.690;19.948;2022-08-23T03:50:35;99941.75;;;18.17;100.00
41467;BME280;27205;53.690;19.948;2022-08-23T03:55:40;99943.90;;;18.20;100.00
41467;BME280;27205;53.690;19.948;2022-08-23T04:00:44;99946.84;;;18.20;100.00
41467;BME280;27205;53.690;19.948;2022-08-23T04:05:48;99953.58;;;18.20;100.00
41467;BME280;27205;53.690;19.948;2022-08-23T04:10:51;99952.20;;;18.24;100.00
41467;BME280;27205;53.690;19.948;2022-08-23T04:15:57;99949.36;;;18.29;100.00
41467;BME280;27205;53.690;19.948;2022-08-23T04:21:05;99950.34;;;18.34;100.00
41467;BME280;27205;53.690;19.948;2022-08-23T04:26:09;99934.02;;;18.35;100.00
41467;BME280;27205;53.690;19.948;2022-08-23T04:31:14;99934.16;;;18.39;100.00
41467;BME280;27205;53.690;19.948;2022-08-23T04:36:20;99936.66;;;18.42;100.00
41467;BME280;27205;53.690;19.948;2022-08-23T04:41:25;99932.38;;;18.52;100.00
41467;BME280;27205;53.690;19.948;2022-08-23T04:46:47;99935.10;;;18.60;100.00
41467;BME280;27205;53.690;19.948;2022-08-23T04:51:51;99934.27;;;18.64;100.00
41467;BME280;27205;53.690;19.948;2022-08-23T04:56:55;99937.73;;;18.68;100.00
41467;BME280;27205;53.690;19.948;2022-08-23T05:01:59;99939.92;;;18.71;100.00
41467;BME280;27205;53.690;19.948;2022-08-23T05:07:02;99936.61;;;18.72;100.00
41467;BME280;27205;53.690;19.948;2022-08-23T05:12:06;99939.91;;;18.81;100.00
41467;BME280;27205;53.690;19.948;2022-08-23T05:17:10;99950.70;;;19.02;100.00
41467;BME280;27205;53.690;19.948;2022-08-23T05:22:15;99941.92;;;19.19;100.00
41467;BME280;27205;53.690;19.948;2022-08-23T05:27:18;99928.73;;;19.26;100.00
41467;BME280;27205;53.690;19.948;2022-08-23T05:32:22;99927.13;;;19.31;100.00
41467;BME280;27205;53.690;19.948;2022-08-23T05:37:26;99935.50;;;19.35;100.00
41467;BME280;27205;53.690;19.948;2022-08-23T05:42:29;99952.68;;;19.34;100.00
41467;BME280;27205;53.690;19.948;2022-08-23T05:47:33;99964.10;;;19.41;100.00
41467;BME280;27205;53.690;19.948;2022-08-23T05:52:37;99979.20;;;19.44;100.00
41467;BME280;27205;53.690;19.948;2022-08-23T05:57:40;99985.56;;;19.73;100.00
41467;BME280;27205;53.690;19.948;2022-08-23T06:02:44;99982.62;;;20.00;100.00
41467;BME280;27205;53.690;19.948;2022-08-23T06:07:47;99986.47;;;19.98;100.00
41467;BME280;27205;53.690;19.948;2022-08-23T06:12:51;99981.66;;;20.15;100.00
41467;BME280;27205;53.690;19.948;2022-08-23T06:17:55;99989.13;;;20.50;100.00
41467;BME280;27205;53.690;19.948;2022-08-23T06:22:58;99999.71;;;20.69;100.00
41467;BME280;27205;53.690;19.948;2022-08-23T06:28:01;100000.83;;;20.71;100.00
41467;BME280;27205;53.690;19.948;2022-08-23T06:33:05;100003.41;;;20.78;100.00
41467;BME280;27205;53.690;19.948;2022-08-23T06:38:08;100011.65;;;21.12;100.00
41467;BME280;27205;53.690;19.948;2022-08-23T06:43:12;100018.75;;;21.47;100.00
41467;BME280;27205;53.690;19.948;2022-08-23T06:48:15;100010.61;;;21.79;100.00
41467;BME280;27205;53.690;19.948;2022-08-23T06:53:20;100024.05;;;22.13;100.00
41467;BME280;27205;53.690;19.948;2022-08-23T06:58:24;100029.70;;;22.37;100.00
41467;BME280;27205;53.690;19.948;2022-08-23T07:03:27;100037.89;;;22.66;99.95
41467;BME280;27205;53.690;19.948;2022-08-23T07:08:38;100049.05;;;23.03;100.00
41467;BME280;27205;53.690;19.948;2022-08-23T07:13:42;100054.34;;;23.50;99.26
41467;BME280;27205;53.690;19.948;2022-08-23T07:18:46;100057.77;;;23.40;97.74
41467;BME280;27205;53.690;19.948;2022-08-23T07:23:51;100062.05;;;23.52;99.08
41467;BME280;27205;53.690;19.948;2022-08-23T07:28:57;100058.98;;;23.77;96.79
41467;BME280;27205;53.690;19.948;2022-08-23T07:34:03;100064.02;;;23.47;96.71
41467;BME280;27205;53.690;19.948;2022-08-23T07:39:07;100059.13;;;23.12;98.01
41467;BME280;27205;53.690;19.948;2022-08-23T07:44:12;100063.30;;;22.99;97.60
41467;BME280;27205;53.690;19.948;2022-08-23T07:49:20;100067.31;;;22.86;97.77
41467;BME280;27205;53.690;19.948;2022-08-23T07:54:23;100068.60;;;22.97;98.37
41467;BME280;27205;53.690;19.948;2022-08-23T07:59:27;100070.33;;;23.22;96.71
41467;BME280;27205;53.690;19.948;2022-08-23T08:04:37;100073.29;;;23.47;96.14
41467;BME280;27205;53.690;19.948;2022-08-23T08:09:40;100072.30;;;23.80;96.28
41467;BME280;27205;53.690;19.948;2022-08-23T08:14:45;100082.17;;;24.15;95.60
41467;BME280;27205;53.690;19.948;2022-08-23T08:19:50;100080.60;;;24.20;94.68
41467;BME280;27205;53.690;19.948;2022-08-23T08:24:54;100075.18;;;24.33;93.62
41467;BME280;27205;53.690;19.948;2022-08-23T08:29:57;100080.15;;;24.54;92.07
41467;BME280;27205;53.690;19.948;2022-08-23T08:35:01;100075.90;;;24.76;92.02
41467;BME280;27205;53.690;19.948;2022-08-23T08:40:06;100079.31;;;25.21;92.38
41467;BME280;27205;53.690;19.948;2022-08-23T08:45:25;100079.96;;;25.22;89.67
41467;BME280;27205;53.690;19.948;2022-08-23T08:50:38;100085.98;;;25.17;90.63
41467;BME280;27205;53.690;19.948;2022-08-23T08:55:49;100083.75;;;25.39;91.33
41467;BME280;27205;53.690;19.948;2022-08-23T09:00:55;100083.77;;;25.44;91.20
41467;BME280;27205;53.690;19.948;2022-08-23T09:06:05;100080.00;;;25.47;90.35
41467;BME280;27205;53.690;19.948;2022-08-23T09:16:53;100076.84;;;25.82;87.73
41467;BME280;27205;53.690;19.948;2022-08-23T09:22:04;100081.05;;;25.97;88.35
41467;BME280;27205;53.690;19.948;2022-08-23T09:27:10;100080.23;;;26.17;87.39
41467;BME280;27205;53.690;19.948;2022-08-23T09:32:32;100080.45;;;26.21;86.55
41467;BME280;27205;53.690;19.948;2022-08-23T09:38:18;100085.19;;;26.09;83.20
41467;BME280;27205;53.690;19.948;2022-08-23T09:43:24;100083.09;;;25.95;83.27
41467;BME280;27205;53.690;19.948;2022-08-23T09:53:37;100076.52;;;26.29;84.07
41467;BME280;27205;53.690;19.948;2022-08-23T09:58:45;100069.98;;;26.39;83.34
41467;BME280;27205;53.690;19.948;2022-08-23T10:04:22;100068.81;;;26.61;83.38
41467;BME280;27205;53.690;19.948;2022-08-23T10:09:31;100071.60;;;26.70;81.10
41467;BME280;27205;53.690;19.948;2022-08-23T10:14:42;100068.17;;;26.83;81.53
41467;BME280;27205;53.690;19.948;2022-08-23T10:25:21;100077.49;;;27.43;79.92
41467;BME280;27205;53.690;19.948;2022-08-23T10:41:46;100079.32;;;28.36;77.35
41467;BME280;27205;53.690;19.948;2022-08-23T10:47:20;100076.19;;;28.38;75.51
41467;BME280;27205;53.690;19.948;2022-08-23T10:52:37;100075.38;;;28.51;76.89
41467;BME280;27205;53.690;19.948;2022-08-23T10:57:46;100079.84;;;28.93;76.26
41467;BME280;27205;53.690;19.948;2022-08-23T11:08:11;100075.63;;;29.38;73.30
41467;BME280;27205;53.690;19.948;2022-08-23T11:13:32;100076.70;;;29.17;72.61
41467;BME280;27205;53.690;19.948;2022-08-23T11:18:43;100066.98;;;29.06;72.88
41467;BME280;27205;53.690;19.948;2022-08-23T11:23:48;100066.83;;;29.25;73.00
41467;BME280;27205;53.690;19.948;2022-08-23T11:34:18;100055.23;;;29.48;71.41
41467;BME280;27205;53.690;19.948;2022-08-23T11:45:00;100040.16;;;29.32;70.48
41467;BME280;27205;53.690;19.948;2022-08-23T11:50:25;100046.34;;;29.50;69.69
41467;BME280;27205;53.690;19.948;2022-08-23T12:01:10;100029.24;;;29.61;69.97
41467;BME280;27205;53.690;19.948;2022-08-23T12:06:35;100024.23;;;29.93;69.14
41467;BME280;27205;53.690;19.948;2022-08-23T12:22:20;100026.71;;;30.54;66.70
41467;BME280;27205;53.690;19.948;2022-08-23T12:38:14;100028.15;;;31.45;64.87
41467;BME280;27205;53.690;19.948;2022-08-23T12:43:24;100026.75;;;31.35;63.67
41467;BME280;27205;53.690;19.948;2022-08-23T12:48:33;100023.27;;;31.27;63.71
41467;BME280;27205;53.690;19.948;2022-08-23T12:53:46;100016.89;;;30.88;62.47
41467;BME280;27205;53.690;19.948;2022-08-23T12:58:56;99998.75;;;30.40;63.24
41467;BME280;27205;53.690;19.948;2022-08-23T13:04:08;99988.14;;;30.10;64.21
41467;BME280;27205;53.690;19.948;2022-08-23T13:14:36;99950.42;;;29.27;65.52
41467;BME280;27205;53.690;19.948;2022-08-23T13:19:47;99988.80;;;28.89;66.13
41467;BME280;27205;53.690;19.948;2022-08-23T13:30:30;100030.98;;;28.11;67.65
41467;BME280;27205;53.690;19.948;2022-08-23T13:56:33;100022.59;;;27.17;70.38
41467;BME280;27205;53.690;19.948;2022-08-23T14:01:38;100017.14;;;26.87;71.36
41467;BME280;27205;53.690;19.948;2022-08-23T14:06:41;100046.84;;;26.70;71.92
41467;BME280;27205;53.690;19.948;2022-08-23T14:11:54;100089.56;;;26.38;72.88
41467;BME280;27205;53.690;19.948;2022-08-23T14:16:59;100096.16;;;25.62;73.38
41467;BME280;27205;53.690;19.948;2022-08-23T14:22:04;100081.52;;;25.03;73.86
41467;BME280;27205;53.690;19.948;2022-08-23T14:27:08;100081.09;;;24.64;74.79
41467;BME280;27205;53.690;19.948;2022-08-23T14:32:13;100068.88;;;24.30;75.57
41467;BME280;27205;53.690;19.948;2022-08-23T14:37:16;100072.83;;;23.96;76.40
41467;BME280;27205;53.690;19.948;2022-08-23T14:42:39;100079.43;;;23.72;76.84
41467;BME280;27205;53.690;19.948;2022-08-23T14:47:42;100084.60;;;23.62;76.98
41467;BME280;27205;53.690;19.948;2022-08-23T14:52:46;100086.44;;;23.55;77.68
41467;BME280;27205;53.690;19.948;2022-08-23T14:57:50;100089.06;;;23.48;77.91
41467;BME280;27205;53.690;19.948;2022-08-23T15:02:54;100092.58;;;23.38;78.24
41467;BME280;27205;53.690;19.948;2022-08-23T15:07:57;100086.81;;;23.32;79.22
41467;BME280;27205;53.690;19.948;2022-08-23T15:13:01;100082.84;;;23.30;79.70
41467;BME280;27205;53.690;19.948;2022-08-23T15:18:26;100073.35;;;23.29;80.05
41467;BME280;27205;53.690;19.948;2022-08-23T15:23:30;100058.06;;;23.17;80.08
41467;BME280;27205;53.690;19.948;2022-08-23T15:28:34;100038.23;;;23.03;81.08
41467;BME280;27205;53.690;19.948;2022-08-23T15:33:38;100017.27;;;22.77;83.28
41467;BME280;27205;53.690;19.948;2022-08-23T15:38:44;100027.65;;;22.46;84.11
41467;BME280;27205;53.690;19.948;2022-08-23T15:43:50;100059.46;;;22.37;83.79
41467;BME280;27205;53.690;19.948;2022-08-23T15:48:59;100094.14;;;22.40;83.71
41467;BME280;27205;53.690;19.948;2022-08-23T15:54:06;100110.21;;;22.38;84.67
41467;BME280;27205;53.690;19.948;2022-08-23T16:05:53;100157.97;;;22.26;86.88
41467;BME280;27205;53.690;19.948;2022-08-23T16:10:58;100169.35;;;22.14;87.26
41467;BME280;27205;53.690;19.948;2022-08-23T16:16:02;100169.73;;;22.02;88.03
41467;BME280;27205;53.690;19.948;2022-08-23T16:21:06;100177.94;;;21.80;88.59
41467;BME280;27205;53.690;19.948;2022-08-23T16:26:15;100180.00;;;21.61;89.60
41467;BME280;27205;53.690;19.948;2022-08-23T16:31:23;100132.61;;;21.09;89.99
41467;BME280;27205;53.690;19.948;2022-08-23T16:36:44;100106.31;;;20.73;90.49
41467;BME280;27205;53.690;19.948;2022-08-23T16:41:48;100118.38;;;20.51;91.41
41467;BME280;27205;53.690;19.948;2022-08-23T16:46:52;100143.84;;;20.40;92.28
41467;BME280;27205;53.690;19.948;2022-08-23T16:51:55;100148.61;;;20.30;92.46
41467;BME280;27205;53.690;19.948;2022-08-23T16:56:59;100149.40;;;20.29;92.86
41467;BME280;27205;53.690;19.948;2022-08-23T17:02:03;100154.45;;;20.35;93.88
41467;BME280;27205;53.690;19.948;2022-08-23T17:07:12;100169.17;;;20.36;94.42
41467;BME280;27205;53.690;19.948;2022-08-23T17:12:17;100177.27;;;20.45;94.15
41467;BME280;27205;53.690;19.948;2022-08-23T17:17:21;100172.73;;;20.47;93.98
41467;BME280;27205;53.690;19.948;2022-08-23T17:22:24;100152.66;;;20.45;95.36
41467;BME280;27205;53.690;19.948;2022-08-23T17:27:28;100144.50;;;20.47;95.90
41467;BME280;27205;53.690;19.948;2022-08-23T17:32:32;100151.01;;;20.53;96.78
41467;BME280;27205;53.690;19.948;2022-08-23T17:37:36;100164.29;;;20.63;98.82
41467;BME280;27205;53.690;19.948;2022-08-23T17:42:40;100171.80;;;20.72;99.33
41467;BME280;27205;53.690;19.948;2022-08-23T17:47:46;100165.08;;;20.81;99.50
41467;BME280;27205;53.690;19.948;2022-08-23T17:52:49;100163.45;;;20.76;99.98
41467;BME280;27205;53.690;19.948;2022-08-23T17:57:53;100175.34;;;20.76;99.93
41467;BME280;27205;53.690;19.948;2022-08-23T18:03:06;100177.72;;;20.76;100.00
41467;BME280;27205;53.690;19.948;2022-08-23T18:08:09;100187.34;;;20.79;99.79
41467;BME280;27205;53.690;19.948;2022-08-23T18:13:13;100174.05;;;20.78;99.81
41467;BME280;27205;53.690;19.948;2022-08-23T18:18:16;100170.55;;;20.75;100.00
41467;BME280;27205;53.690;19.948;2022-08-23T18:23:20;100173.11;;;20.74;100.00
41467;BME280;27205;53.690;19.948;2022-08-23T18:28:23;100173.83;;;20.77;100.00
41467;BME280;27205;53.690;19.948;2022-08-23T18:33:27;100178.20;;;20.78;100.00
41467;BME280;27205;53.690;19.948;2022-08-23T18:38:48;100181.09;;;20.74;100.00
41467;BME280;27205;53.690;19.948;2022-08-23T18:43:51;100183.34;;;20.74;100.00
41467;BME280;27205;53.690;19.948;2022-08-23T18:48:55;100176.61;;;20.79;100.00
41467;BME280;27205;53.690;19.948;2022-08-23T18:53:59;100177.04;;;20.81;100.00
41467;BME280;27205;53.690;19.948;2022-08-23T18:59:03;100176.42;;;20.90;100.00
41467;BME280;27205;53.690;19.948;2022-08-23T19:04:08;100172.52;;;20.89;100.00
41467;BME280;27205;53.690;19.948;2022-08-23T19:09:12;100169.27;;;20.88;100.00
41467;BME280;27205;53.690;19.948;2022-08-23T19:14:15;100171.24;;;20.90;100.00
41467;BME280;27205;53.690;19.948;2022-08-23T19:19:18;100170.08;;;20.95;100.00
41467;BME280;27205;53.690;19.948;2022-08-23T19:24:22;100169.93;;;20.94;100.00
41467;BME280;27205;53.690;19.948;2022-08-23T19:29:26;100179.27;;;20.97;100.00
41467;BME280;27205;53.690;19.948;2022-08-23T19:34:29;100180.46;;;20.98;100.00
41467;BME280;27205;53.690;19.948;2022-08-23T19:39:35;100186.52;;;20.99;100.00
41467;BME280;27205;53.690;19.948;2022-08-23T19:44:38;100191.42;;;21.00;100.00
41467;BME280;27205;53.690;19.948;2022-08-23T19:49:42;100200.27;;;21.01;100.00
41467;BME280;27205;53.690;19.948;2022-08-23T19:54:45;100200.30;;;21.02;100.00
41467;BME280;27205;53.690;19.948;2022-08-23T19:59:49;100196.06;;;21.12;100.00
41467;BME280;27205;53.690;19.948;2022-08-23T20:04:52;100197.97;;;21.10;100.00
41467;BME280;27205;53.690;19.948;2022-08-23T20:09:56;100193.20;;;21.12;100.00
41467;BME280;27205;53.690;19.948;2022-08-23T20:15:00;100192.77;;;21.11;100.00
41467;BME280;27205;53.690;19.948;2022-08-23T20:20:06;100190.05;;;21.12;100.00
41467;BME280;27205;53.690;19.948;2022-08-23T20:25:10;100188.90;;;21.10;100.00
41467;BME280;27205;53.690;19.948;2022-08-23T20:30:14;100185.65;;;21.13;100.00
41467;BME280;27205;53.690;19.948;2022-08-23T20:35:17;100190.55;;;21.15;100.00
41467;BME280;27205;53.690;19.948;2022-08-23T20:40:20;100188.77;;;21.17;100.00
41467;BME280;27205;53.690;19.948;2022-08-23T20:45:25;100191.02;;;21.21;100.00
41467;BME280;27205;53.690;19.948;2022-08-23T20:50:28;100183.97;;;21.21;100.00
41467;BME280;27205;53.690;19.948;2022-08-23T20:55:33;100190.67;;;21.23;100.00
41467;BME280;27205;53.690;19.948;2022-08-23T21:00:36;100199.16;;;21.23;100.00
41467;BME280;27205;53.690;19.948;2022-08-23T21:05:39;100198.45;;;21.21;100.00
41467;BME280;27205;53.690;19.948;2022-08-23T21:10:43;100196.05;;;21.18;100.00
41467;BME280;27205;53.690;19.948;2022-08-23T21:15:47;100201.70;;;21.12;100.00
41467;BME280;27205;53.690;19.948;2022-08-23T21:20:51;100206.36;;;21.11;100.00
41467;BME280;27205;53.690;19.948;2022-08-23T21:25:56;100212.43;;;21.10;100.00
41467;BME280;27205;53.690;19.948;2022-08-23T21:31:05;100217.01;;;21.11;100.00
41467;BME280;27205;53.690;19.948;2022-08-23T21:36:11;100229.13;;;21.08;100.00
41467;BME280;27205;53.690;19.948;2022-08-23T21:41:40;100234.28;;;21.04;100.00
41467;BME280;27205;53.690;19.948;2022-08-23T21:46:44;100238.54;;;21.02;100.00
41467;BME280;27205;53.690;19.948;2022-08-23T21:51:48;100237.92;;;20.99;100.00
41467;BME280;27205;53.690;19.948;2022-08-23T21:56:52;100236.64;;;20.94;100.00
41467;BME280;27205;53.690;19.948;2022-08-23T22:01:55;100238.67;;;20.88;100.00
41467;BME280;27205;53.690;19.948;2022-08-23T22:06:58;100232.70;;;20.86;100.00
41467;BME280;27205;53.690;19.948;2022-08-23T22:12:03;100230.80;;;20.84;100.00
41467;BME280;27205;53.690;19.948;2022-08-23T22:17:08;100232.15;;;20.82;100.00
41467;BME280;27205;53.690;19.948;2022-08-23T22:22:11;100259.05;;;20.84;100.00
41467;BME280;27205;53.690;19.948;2022-08-23T22:27:17;100263.48;;;20.87;100.00
41467;BME280;27205;53.690;19.948;2022-08-23T22:32:21;100261.50;;;20.86;100.00
41467;BME280;27205;53.690;19.948;2022-08-23T22:37:25;100263.08;;;20.83;100.00
41467;BME280;27205;53.690;19.948;2022-08-23T22:42:28;100260.83;;;20.81;100.00
41467;BME280;27205;53.690;19.948;2022-08-23T22:47:32;100249.58;;;20.80;100.00
41467;BME280;27205;53.690;19.948;2022-08-23T22:52:36;100247.27;;;20.77;100.00
41467;BME280;27205;53.690;19.948;2022-08-23T22:57:39;100244.48;;;20.73;100.00
41467;BME280;27205;53.690;19.948;2022-08-23T23:02:42;100245.09;;;20.69;100.00
41467;BME280;27205;53.690;19.948;2022-08-23T23:07:46;100242.36;;;20.69;100.00
41467;BME280;27205;53.690;19.948;2022-08-23T23:13:08;100240.45;;;20.73;100.00
41467;BME280;27205;53.690;19.948;2022-08-23T23:18:11;100233.05;;;20.68;100.00
41467;BME280;27205;53.690;19.948;2022-08-23T23:23:20;100234.45;;;20.60;100.00
41467;BME280;27205;53.690;19.948;2022-08-23T23:28:25;100234.58;;;20.58;100.00
41467;BME280;27205;53.690;19.948;2022-08-23T23:33:28;100224.31;;;20.54;100.00
41467;BME280;27205;53.690;19.948;2022-08-23T23:38:31;100232.89;;;20.52;100.00
41467;BME280;27205;53.690;19.948;2022-08-23T23:43:35;100249.86;;;20.52;100.00
41467;BME280;27205;53.690;19.948;2022-08-23T23:48:39;100254.63;;;20.55;100.00
41467;BME280;27205;53.690;19.948;2022-08-23T23:53:43;100239.73;;;20.54;100.00
41467;BME280;27205;53.690;19.948;2022-08-23T23:58:49;100229.77;;;20.49;100.00
